Terminal Aerodrome Forecast
Issued by NWS Louisville, KY

Home | Current Version | Previous Version | Text Only | Print | Product List | Glossary On
Versions: 1 2 3 4 5 6 7 8 9 10 11 12 13 14 15 16
332
FTUS43 KLMK 162333
TAFLEX
TAF
KLEX 162333Z 1700/1724 30005KT P6SM SKC
     FM170100 29004KT P6SM SCT030
     FM170200 29005KT 4SM -SN BKN028 OVC045
     FM171200 27004KT P6SM SCT035
     FM171500 28007KT P6SM SCT100=

USA.gov is the U.S. government's official web portal to all federal, state and local government web resources and services.